Time;durP1;ratioP1;P1;durP2;ratioP2;P2;SDS_P1;SDS_P2;PMS_P1;PMS_P2;Temp;Humidity;BMP_temperature;BMP_pressure;BME280_temperature;BME280_humidity;BME280_pressure;Samples;Min_cycle;Max_cycle;Signal;HPM_P1;HPM_P2
2021/10/30 00:01:00;;;;;;;6.43;2.90;;;;;;;-145.69;100.00;71881.97;5095050;28;20206;-81
2021/10/30 00:03:28;;;;;;;5.10;2.23;;;;;;;-145.69;100.00;71880.00;5093274;28;20259;-81
2021/10/30 00:05:55;;;;;;;6.77;2.40;;;;;;;-145.69;100.00;71872.03;5094724;28;20198;-81
2021/10/30 00:08:22;;;;;;;6.03;2.40;;;;;;;-145.69;100.00;71880.00;5096099;28;20748;-81
2021/10/30 00:10:48;;;;;;;4.00;2.10;;;;;;;-145.69;99.35;71856.09;5095720;28;20267;-82
2021/10/30 00:13:15;;;;;;;5.73;2.23;;;;;;;-145.69;99.88;71860.09;5093389;28;20263;-81
2021/10/30 00:15:42;;;;;;;3.00;1.80;;;;;;;-145.69;99.64;71876.00;5093125;28;20198;-82
2021/10/30 00:18:08;;;;;;;2.90;2.00;;;;;;;-145.69;98.72;71860.09;5094390;28;20607;-82
2021/10/30 00:20:36;;;;;;;3.67;2.10;;;;;;;-145.69;99.26;71874.03;5094512;28;20204;-81
2021/10/30 00:23:03;;;;;;;3.37;2.10;;;;;;;-145.69;99.36;71864.06;5094421;28;20243;-81
2021/10/30 00:25:29;;;;;;;4.70;1.70;;;;;;;-145.69;97.25;71832.22;5094626;28;20255;-81
2021/10/30 00:27:56;;;;;;;7.27;2.33;;;;;;;-145.69;95.00;71820.28;5094422;28;20295;-81
2021/10/30 00:30:22;;;;;;;2.43;1.63;;;;;;;-145.69;94.17;71800.38;5094354;28;20205;-81
2021/10/30 00:32:49;;;;;;;7.90;2.20;;;;;;;-145.69;94.31;71804.38;5094320;28;20208;-81
2021/10/30 00:35:15;;;;;;;3.40;1.80;;;;;;;-145.69;96.47;71842.19;5094088;28;20203;-82
2021/10/30 00:37:43;;;;;;;4.93;1.80;;;;;;;-145.69;97.08;71854.13;5094101;28;20554;-80
2021/10/30 00:40:11;;;;;;;3.53;2.10;;;;;;;-145.69;99.35;71876.00;5093711;28;20267;-81
2021/10/30 00:42:38;;;;;;;4.77;1.90;;;;;;;-145.69;100.00;71895.91;5094058;28;20202;-82
2021/10/30 00:45:06;;;;;;;5.00;1.80;;;;;;;-145.69;100.00;71907.84;5093992;28;20197;-81
2021/10/30 00:47:33;;;;;;;4.37;2.20;;;;;;;-145.69;100.00;71907.84;5094160;28;20568;-81
2021/10/30 00:50:00;;;;;;;4.43;2.13;;;;;;;-145.69;100.00;71903.88;5093696;28;20649;-81
2021/10/30 00:52:28;;;;;;;2.10;1.53;;;;;;;-145.69;100.00;71891.94;5093736;28;20222;-82
2021/10/30 00:54:59;;;;;;;2.50;1.40;;;;;;;-145.69;100.00;71887.94;5093561;28;20292;-83
2021/10/30 00:57:26;;;;;;;3.33;1.57;;;;;;;-145.69;100.00;71880.00;5093922;28;20197;-82
2021/10/30 00:59:53;;;;;;;3.40;1.23;;;;;;;-145.69;100.00;71895.91;5093467;28;20197;-81
2021/10/30 01:02:20;;;;;;;2.30;1.40;;;;;;;-145.69;100.00;71891.94;5093783;28;20243;-81
2021/10/30 01:04:47;;;;;;;5.03;1.63;;;;;;;-145.69;100.00;71891.94;5093628;28;20562;-82
2021/10/30 01:07:14;;;;;;;4.87;1.60;;;;;;;-145.69;100.00;71893.91;5093636;28;20202;-81
2021/10/30 01:09:41;;;;;;;2.40;1.57;;;;;;;-145.69;100.00;71887.94;5093525;28;20255;-82
2021/10/30 01:12:10;;;;;;;3.20;1.77;;;;;;;-145.69;100.00;71895.91;5111456;28;20217;-81
2021/10/30 01:14:38;;;;;;;4.90;1.73;;;;;;;-145.69;97.83;71848.16;5113847;28;20254;-81
2021/10/30 01:17:07;;;;;;;11.27;1.90;;;;;;;-145.69;98.07;71854.13;5113777;28;20634;-82
2021/10/30 01:19:34;;;;;;;2.77;1.43;;;;;;;-145.69;98.12;71838.19;5113836;28;20199;-81
2021/10/30 01:22:03;;;;;;;3.77;1.67;;;;;;;-145.69;99.29;71862.06;5113690;28;20208;-81
2021/10/30 01:24:30;;;;;;;4.80;1.37;;;;;;;-145.69;98.22;71866.06;5113668;28;20208;-81
2021/10/30 01:26:57;;;;;;;6.43;1.70;;;;;;;-145.69;98.79;71870.03;5113974;28;20204;-81
2021/10/30 01:29:24;;;;;;;3.53;1.40;;;;;;;-145.69;98.62;71878.00;5113589;28;20235;-82
2021/10/30 01:31:51;;;;;;;4.47;1.33;;;;;;;-145.69;99.79;71868.06;5113499;28;20232;-82
2021/10/30 01:34:18;;;;;;;3.90;1.80;;;;;;;-145.69;100.00;71880.00;5113772;28;20584;-82
2021/10/30 01:36:45;;;;;;;2.23;1.50;;;;;;;-145.69;100.00;71880.00;5113675;28;20201;-81
2021/10/30 01:39:13;;;;;;;1.63;1.30;;;;;;;-145.69;99.39;71872.03;5113706;28;20201;-81
2021/10/30 01:41:40;;;;;;;4.33;1.33;;;;;;;-145.69;99.59;71878.00;5113841;28;20280;-81
2021/10/30 01:44:07;;;;;;;3.23;1.37;;;;;;;-145.69;99.64;71897.91;5113711;28;20620;-81
2021/10/30 01:46:34;;;;;;;2.37;1.53;;;;;;;-145.69;99.27;71881.97;5113452;28;20231;-81
2021/10/30 01:49:01;;;;;;;1.73;1.17;;;;;;;-145.69;98.89;71862.06;5113450;28;20209;-81
2021/10/30 01:51:28;;;;;;;3.73;1.60;;;;;;;-145.69;99.18;71856.09;5112139;28;20304;-81
2021/10/30 01:53:55;;;;;;;4.73;1.03;;;;;;;-145.69;97.86;71856.09;5113424;28;20675;-81
2021/10/30 01:56:23;;;;;;;2.33;1.20;;;;;;;-145.69;98.19;71858.09;5113345;28;20559;-81
2021/10/30 01:58:49;;;;;;;5.80;1.17;;;;;;;-145.69;98.83;71868.06;5113507;28;20227;-81
2021/10/30 02:01:16;;;;;;;1.97;1.40;;;;;;;-145.69;99.32;71870.03;5113116;28;20206;-80
2021/10/30 02:03:42;;;;;;;3.67;1.20;;;;;;;-145.69;99.68;71872.03;5113163;28;20321;-81
2021/10/30 02:06:09;;;;;;;4.28;1.20;;;;;;;-145.69;99.69;71868.06;5112478;27;20516;-81
2021/10/30 02:08:36;;;;;;;5.47;1.80;;;;;;;-145.69;98.93;71856.09;5113299;28;20271;-81
2021/10/30 02:11:04;;;;;;;6.00;1.20;;;;;;;-145.69;98.87;71864.06;5113082;28;20221;-81
2021/10/30 02:13:32;;;;;;;2.27;1.30;;;;;;;-145.69;97.82;71848.16;5113273;28;20197;-82
2021/10/30 02:15:59;;;;;;;1.63;1.37;;;;;;;-145.69;97.09;71832.22;5113068;28;20205;-82
2021/10/30 02:18:25;;;;;;;1.60;1.20;;;;;;;-145.69;97.97;71850.13;5113008;28;20202;-81
2021/10/30 02:20:52;;;;;;;2.33;1.20;;;;;;;-145.69;98.33;71864.06;5113029;28;20228;-81
2021/10/30 02:23:19;;;;;;;3.83;1.83;;;;;;;-145.69;99.21;71872.03;5113190;28;20193;-81
2021/10/30 02:25:45;;;;;;;1.73;1.53;;;;;;;-145.69;99.01;71868.06;5113229;28;20723;-81
2021/10/30 02:28:12;;;;;;;4.27;1.30;;;;;;;-145.69;99.92;71866.06;5112786;28;20230;-81
2021/10/30 02:30:40;;;;;;;2.33;1.30;;;;;;;-145.69;100.00;71876.00;5113088;28;20541;-82
2021/10/30 02:33:06;;;;;;;2.00;1.30;;;;;;;-145.69;99.06;71878.00;5113182;28;20236;-81
2021/10/30 02:35:33;;;;;;;2.10;1.10;;;;;;;-145.69;99.82;71876.00;5113455;28;20212;-82
2021/10/30 02:37:59;;;;;;;1.70;1.03;;;;;;;-145.69;98.56;71858.09;5116887;27;20242;-82
2021/10/30 02:40:26;;;;;;;3.85;1.40;;;;;;;-145.69;97.54;71856.09;5116381;28;20439;-81
2021/10/30 02:42:52;;;;;;;4.67;1.73;;;;;;;-145.69;97.14;71862.06;5116673;28;20201;-80
2021/10/30 02:45:19;;;;;;;1.83;1.23;;;;;;;-145.69;98.71;71880.00;5116541;28;20205;-81
2021/10/30 02:47:47;;;;;;;6.20;1.40;;;;;;;-145.69;100.00;71870.03;5116710;27;20243;-83
2021/10/30 02:50:14;;;;;;;3.23;1.30;;;;;;;-145.69;97.72;71842.19;5116523;28;20197;-81
2021/10/30 02:52:41;;;;;;;2.30;1.27;;;;;;;-145.69;97.70;71836.22;5116072;28;20414;-80
2021/10/30 02:55:09;;;;;;;2.73;1.53;;;;;;;-145.69;96.97;71826.25;5116527;27;20537;-82
2021/10/30 02:57:35;;;;;;;3.13;1.20;;;;;;;-145.69;96.94;71824.25;5116400;28;20205;-82
2021/10/30 03:00:02;;;;;;;3.90;1.13;;;;;;;-145.69;97.49;71836.22;5116503;28;20202;-82
2021/10/30 03:02:28;;;;;;;1.30;1.10;;;;;;;-145.69;97.85;71856.09;5116154;28;20206;-82
2021/10/30 03:04:56;;;;;;;3.40;1.40;;;;;;;-145.69;96.67;71856.09;5116249;28;20220;-82
2021/10/30 03:07:26;;;;;;;1.37;1.10;;;;;;;-145.69;96.76;71852.13;5115933;28;20201;-82
2021/10/30 03:09:52;;;;;;;5.57;1.47;;;;;;;-145.69;97.08;71870.03;5115854;28;20193;-82
2021/10/30 03:12:19;;;;;;;2.83;1.23;;;;;;;-145.69;96.69;71866.06;5115770;28;20297;-82
2021/10/30 03:14:47;;;;;;;3.67;1.30;;;;;;;-145.69;97.97;71858.09;5116105;28;20322;-82
2021/10/30 03:17:20;;;;;;;3.97;1.30;;;;;;;-145.69;97.18;71850.13;5115889;28;20254;-82
2021/10/30 03:19:52;;;;;;;1.70;1.23;;;;;;;-145.69;97.08;71862.06;5115919;28;20201;-82
2021/10/30 03:22:20;;;;;;;3.13;1.40;;;;;;;-145.69;97.39;71838.19;5112565;28;20280;-82
2021/10/30 03:24:49;;;;;;;2.37;1.20;;;;;;;-145.69;97.00;71842.19;5115594;28;20232;-82
2021/10/30 03:27:16;;;;;;;2.57;1.20;;;;;;;-145.69;96.86;71844.16;5115571;28;20656;-82
2021/10/30 03:29:42;;;;;;;2.37;1.30;;;;;;;-145.69;96.55;71846.16;5115770;28;20193;-82
2021/10/30 03:32:09;;;;;;;1.87;1.20;;;;;;;-145.69;95.17;71820.28;5115142;28;20228;-82
2021/10/30 03:34:39;;;;;;;2.47;1.10;;;;;;;-145.69;94.18;71804.38;5115107;28;20204;-82
2021/10/30 03:37:06;;;;;;;2.13;1.30;;;;;;;-145.69;93.58;71792.44;5115516;28;20197;-82
2021/10/30 03:39:36;;;;;;;3.22;1.38;;;;;;;-145.69;94.57;71786.47;5114383;28;21120;-82
2021/10/30 03:42:02;;;;;;;4.13;1.33;;;;;;;-145.69;94.21;71796.41;5114191;28;20202;-82
2021/10/30 03:44:31;;;;;;;1.30;1.20;;;;;;;-145.69;95.87;71808.34;5115302;28;20193;-82
2021/10/30 03:47:01;;;;;;;4.00;1.13;;;;;;;-145.69;95.25;71804.38;5115399;28;20198;-82
2021/10/30 03:49:35;;;;;;;1.70;1.00;;;;;;;-145.69;97.01;71802.38;5115243;28;20201;-82
2021/10/30 03:52:03;;;;;;;3.60;1.10;;;;;;;-145.69;96.79;71800.38;5115124;28;20223;-82
2021/10/30 03:54:33;;;;;;;1.33;1.00;;;;;;;-145.69;97.51;71804.38;5115286;28;20197;-82
2021/10/30 03:57:00;;;;;;;2.50;1.43;;;;;;;-145.69;97.45;71794.41;5115200;28;20202;-82
2021/10/30 03:59:28;;;;;;;6.40;1.30;;;;;;;-145.69;96.54;71774.50;5115201;28;20239;-82
2021/10/30 04:01:57;;;;;;;2.93;1.07;;;;;;;-145.69;97.73;71764.56;5115044;28;20238;-82
2021/10/30 04:04:29;;;;;;;1.93;1.17;;;;;;;-145.69;97.76;71756.59;5115206;28;20250;-82
2021/10/30 04:07:08;;;;;;;;;;;;;;;;;;;;;
2021/10/30 04:09:36;;;;;;;2.60;1.20;;;;;;;-145.69;95.95;71714.81;5115006;28;20201;-83
2021/10/30 04:12:05;;;;;;;1.97;1.17;;;;;;;-145.69;97.21;71710.84;5114805;28;20224;-83
2021/10/30 04:14:34;;;;;;;3.33;1.53;;;;;;;-145.69;96.35;71696.91;5114617;28;20198;-83
2021/10/30 04:17:00;;;;;;;2.07;1.30;;;;;;;-145.69;96.39;71692.94;5114558;28;20198;-83
2021/10/30 04:19:27;;;;;;;5.03;1.20;;;;;;;-145.69;95.11;71677.00;5114718;28;20197;-83
2021/10/30 04:22:07;;;;;;;2.43;1.00;;;;;;;-145.69;94.21;71661.09;5114584;28;20214;-83
2021/10/30 04:24:34;;;;;;;3.80;1.10;;;;;;;-145.69;93.64;71659.09;5114569;28;20219;-84
2021/10/30 04:27:08;;;;;;;3.90;1.33;;;;;;;-145.69;93.25;71657.09;5114454;28;20193;-83
2021/10/30 04:29:34;;;;;;;4.60;1.20;;;;;;;-145.69;93.30;71657.09;5114175;28;20718;-83
2021/10/30 04:32:07;;;;;;;6.97;1.10;;;;;;;-145.69;94.38;71647.16;5114394;27;20446;-83
2021/10/30 04:34:44;;;;;;;6.03;1.20;;;;;;;-145.69;92.79;71643.19;5114317;28;20204;-82
2021/10/30 04:37:18;;;;;;;2.33;1.17;;;;;;;-145.69;89.46;71621.28;5114551;28;20204;-83
2021/10/30 04:39:49;;;;;;;3.77;1.10;;;;;;;-145.69;88.05;71601.38;5114283;28;20197;-83
2021/10/30 04:42:19;;;;;;;1.83;1.00;;;;;;;-145.69;84.68;71561.59;5114326;27;20197;-83
2021/10/30 04:44:55;;;;;;;2.60;1.00;;;;;;;-145.69;85.79;71569.53;5114117;28;20197;-83
2021/10/30 04:47:22;;;;;;;2.83;1.40;;;;;;;-145.69;87.65;71581.50;5114209;28;20624;-82
2021/10/30 04:49:50;;;;;;;7.57;1.20;;;;;;;-145.69;87.30;71593.44;5114409;28;20723;-83
2021/10/30 04:52:17;;;;;;;3.47;1.17;;;;;;;-145.69;86.78;71617.31;5114836;28;20269;-82
2021/10/30 04:54:49;;;;;;;1.20;1.10;;;;;;;-145.69;88.70;71633.22;5114039;28;20197;-83
2021/10/30 04:57:17;;;;;;;1.63;0.97;;;;;;;-145.69;85.82;71589.44;5113942;28;20246;-83
2021/10/30 04:59:43;;;;;;;3.47;1.30;;;;;;;-145.69;88.66;71607.34;5113400;28;20296;-81
2021/10/30 05:02:14;;;;;;;2.70;1.17;;;;;;;-145.69;88.86;71595.41;5113953;28;20202;-83
2021/10/30 05:04:41;;;;;;;2.23;1.27;;;;;;;-145.69;88.93;71621.28;5113797;28;20201;-82
2021/10/30 05:07:09;;;;;;;3.07;1.20;;;;;;;-145.69;89.43;71637.19;5113797;28;20197;-83
2021/10/30 05:09:36;;;;;;;3.90;1.57;;;;;;;-145.69;86.77;71635.22;5113924;28;20197;-83
2021/10/30 05:12:07;;;;;;;3.07;1.53;;;;;;;-145.69;85.04;71603.38;5113683;28;20193;-83
2021/10/30 05:14:35;;;;;;;4.47;1.70;;;;;;;-145.69;84.36;71589.44;5113706;28;20197;-83
2021/10/30 05:17:01;;;;;;;4.77;1.70;;;;;;;-145.69;86.08;71613.31;5113809;28;20204;-81
2021/10/30 05:19:28;;;;;;;2.73;1.40;;;;;;;-145.69;83.82;71561.59;5109780;28;20197;-84
2021/10/30 05:21:55;;;;;;;4.10;1.57;;;;;;;-145.69;85.02;71565.56;5113741;28;20292;-83
2021/10/30 05:24:21;;;;;;;2.50;1.67;;;;;;;-145.69;86.44;71573.53;5113787;28;20205;-83
2021/10/30 05:26:48;;;;;;;5.07;2.27;;;;;;;-145.69;86.61;71567.56;5113607;28;20250;-83
2021/10/30 05:29:18;;;;;;;5.07;2.30;;;;;;;-145.69;88.24;71553.63;5113297;28;20722;-83
2021/10/30 05:31:46;;;;;;;7.73;3.13;;;;;;;-145.69;86.48;71517.81;5113546;28;20201;-84
2021/10/30 05:34:15;;;;;;;7.20;2.43;;;;;;;-145.69;85.09;71497.91;5113382;28;20235;-84
2021/10/30 05:36:44;;;;;;;6.17;2.37;;;;;;;-145.69;86.00;71509.84;5113610;28;20197;-83
2021/10/30 05:39:15;;;;;;;12.10;3.70;;;;;;;-145.69;83.70;71446.16;5113625;28;20284;-84
2021/10/30 05:41:41;;;;;;;10.50;3.87;;;;;;;-145.69;77.76;71346.69;5113431;28;20652;-85
2021/10/30 05:44:08;;;;;;;9.13;3.83;;;;;;;-145.69;74.18;71277.03;5113418;28;20216;-83
2021/10/30 05:46:37;;;;;;;14.93;4.60;;;;;;;-145.69;69.25;71191.47;5113315;28;20201;-83
2021/10/30 05:49:07;;;;;;;11.93;3.30;;;;;;;-145.69;69.98;71195.47;5113166;28;20197;-83
2021/10/30 05:51:34;;;;;;;8.17;3.33;;;;;;;-145.69;68.22;71179.53;5113026;28;20227;-83
2021/10/30 05:54:01;;;;;;;10.70;3.40;;;;;;;-145.69;66.37;71135.75;5112994;28;20268;-85
2021/10/30 05:56:28;;;;;;;8.77;3.57;;;;;;;-145.69;66.89;71131.78;5113421;28;20652;-84
2021/10/30 05:58:59;;;;;;;10.93;3.73;;;;;;;-145.69;68.05;71151.69;5113134;28;20285;-85
2021/10/30 06:01:28;;;;;;;7.83;3.63;;;;;;;-145.69;66.31;71117.84;5113340;28;20209;-85
2021/10/30 06:03:58;;;;;;;8.97;4.23;;;;;;;-145.69;67.30;71111.88;5113490;28;20215;-85
2021/10/30 06:06:27;;;;;;;9.67;4.13;;;;;;;-145.69;66.28;71092.00;5113411;28;20205;-84
2021/10/30 06:08:57;;;;;;;8.90;3.67;;;;;;;-145.69;66.31;71076.06;5113488;28;20194;-85
2021/10/30 06:11:29;;;;;;;11.30;3.97;;;;;;;-145.69;65.17;71072.09;5114978;28;20201;-85
2021/10/30 06:13:56;;;;;;;12.37;4.10;;;;;;;-145.69;67.20;71090.00;5117484;28;20229;-84
2021/10/30 06:16:22;;;;;;;10.50;4.03;;;;;;;-145.69;65.54;71064.13;5117344;28;20202;-84
2021/10/30 06:18:51;;;;;;;9.63;4.00;;;;;;;-145.69;63.97;71042.25;5117197;28;20201;-83
2021/10/30 06:21:18;;;;;;;9.77;3.70;;;;;;;-145.69;63.38;71032.28;5117239;28;20277;-84
2021/10/30 06:23:48;;;;;;;8.87;2.93;;;;;;;-145.69;61.52;70992.50;5117234;28;20197;-84
2021/10/30 06:26:15;;;;;;;8.90;3.60;;;;;;;-145.69;60.61;70968.63;5117354;28;20228;-82
2021/10/30 06:28:43;;;;;;;8.03;3.70;;;;;;;-145.69;61.62;70954.69;5116868;28;20228;-83
2021/10/30 06:31:12;;;;;;;9.97;2.87;;;;;;;-145.69;59.98;70948.72;5116914;28;20651;-84
2021/10/30 06:33:39;;;;;;;7.63;3.20;;;;;;;-145.69;60.11;70932.81;5117275;28;20691;-83
2021/10/30 06:36:07;;;;;;;7.10;3.43;;;;;;;-145.69;59.70;70912.91;5117066;27;20537;-85
2021/10/30 06:38:39;;;;;;;10.73;3.13;;;;;;;-145.69;58.54;70902.97;5116922;28;20643;-85
2021/10/30 06:41:08;;;;;;;6.57;3.00;;;;;;;-145.69;60.30;70900.97;5117236;28;20201;-84
2021/10/30 06:43:35;;;;;;;8.50;3.23;;;;;;;-145.69;61.24;70908.94;5121225;28;20234;-85
2021/10/30 06:46:02;;;;;;;9.67;3.07;;;;;;;-145.69;58.81;70897.00;5123886;28;20201;-84
2021/10/30 06:48:30;;;;;;;8.13;3.03;;;;;;;-145.69;59.62;70891.03;5119520;28;20225;-83
2021/10/30 06:50:57;;;;;;;9.13;2.97;;;;;;;-145.69;59.86;70906.94;5119294;28;20480;-83
2021/10/30 06:53:23;;;;;;;9.40;2.80;;;;;;;-145.69;58.41;70881.09;5117098;28;20226;-84
2021/10/30 06:55:50;;;;;;;9.80;3.43;;;;;;;-145.69;57.15;70865.16;5117604;28;20248;-84
2021/10/30 06:58:20;;;;;;;4.93;2.53;;;;;;;-145.69;56.88;70863.19;5116813;27;20197;-85
2021/10/30 07:00:57;;;;;;;7.57;3.13;;;;;;;-145.69;57.43;70867.16;5117378;28;20204;-82
2021/10/30 07:03:24;;;;;;;5.30;2.70;;;;;;;-145.69;58.51;70875.13;5117034;28;20287;-84
2021/10/30 07:05:50;;;;;;;7.00;2.80;;;;;;;-145.69;56.52;70859.19;5117022;28;20205;-83
2021/10/30 07:08:17;;;;;;;7.37;2.60;;;;;;;-145.69;58.18;70851.25;5116254;28;20197;-84
2021/10/30 07:10:43;;;;;;;9.20;3.20;;;;;;;-145.69;55.87;70837.31;5116565;28;20227;-84
2021/10/30 07:13:11;;;;;;;5.03;2.73;;;;;;;-145.69;55.77;70833.34;5116175;28;20225;-83
2021/10/30 07:15:41;;;;;;;6.67;3.37;;;;;;;-145.69;56.48;70837.31;5116764;27;20234;-83
2021/10/30 07:18:19;;;;;;;7.30;2.50;;;;;;;-145.69;56.45;70829.34;5112634;28;20190;-83
2021/10/30 07:20:45;;;;;;;5.17;2.40;;;;;;;-145.69;55.96;70813.44;5116460;28;20205;-83
2021/10/30 07:23:12;;;;;;;5.20;2.37;;;;;;;-145.69;55.74;70807.47;5115337;28;20665;-83
2021/10/30 07:25:40;;;;;;;5.27;2.60;;;;;;;-145.69;55.32;70789.56;5115832;28;20652;-83
2021/10/30 07:28:08;;;;;;;5.57;2.60;;;;;;;-145.69;54.96;70783.59;5115494;28;20770;-82
2021/10/30 07:30:37;;;;;;;11.90;2.87;;;;;;;-145.69;55.09;70789.56;5115870;28;20262;-81
2021/10/30 07:33:06;;;;;;;5.83;2.50;;;;;;;-145.69;53.53;70773.66;5115756;27;20278;-83
2021/10/30 07:35:33;;;;;;;5.57;2.43;;;;;;;-145.69;53.78;70761.72;5115533;28;20202;-83
2021/10/30 07:38:00;;;;;;;6.43;2.40;;;;;;;-145.69;53.45;70779.63;5115507;28;20250;-83
2021/10/30 07:40:28;;;;;;;4.90;2.40;;;;;;;-145.69;53.53;70741.81;5115443;28;20237;-85
2021/10/30 07:42:55;;;;;;;4.37;2.07;;;;;;;-145.69;53.98;70739.81;5115461;28;20197;-83
2021/10/30 07:45:22;;;;;;;6.30;2.80;;;;;;;-145.69;54.79;70739.81;5115218;28;20208;-83
2021/10/30 07:47:50;;;;;;;5.50;1.95;;;;;;;-145.69;52.83;70727.88;5115347;28;20205;-84
2021/10/30 07:50:20;;;;;;;5.13;2.23;;;;;;;-145.69;53.27;70717.94;5115261;28;20239;-82
2021/10/30 07:52:46;;;;;;;3.97;2.00;;;;;;;-145.69;53.10;70713.97;5113901;28;20284;-83
2021/10/30 07:55:13;;;;;;;8.50;2.58;;;;;;;-145.69;53.21;70702.03;5114983;28;20209;-82
2021/10/30 07:57:40;;;;;;;6.13;2.50;;;;;;;-145.69;52.73;70686.09;5115025;28;20250;-82
2021/10/30 08:00:09;;;;;;;6.47;2.30;;;;;;;-145.69;51.65;70676.16;5115112;28;20205;-81
2021/10/30 08:02:37;;;;;;;6.00;2.67;;;;;;;-145.69;51.86;70674.16;5115361;28;20201;-81
2021/10/30 08:05:04;;;;;;;6.05;2.70;;;;;;;-145.69;52.08;70674.16;5115224;28;20197;-81
2021/10/30 08:07:36;;;;;;;5.72;2.40;;;;;;;-145.69;51.97;70662.22;5115161;28;20205;-82
2021/10/30 08:10:09;;;;;;;3.40;2.20;;;;;;;-145.69;52.24;70660.25;5114838;28;20200;-82
2021/10/30 08:12:35;;;;;;;3.10;1.95;;;;;;;-145.69;51.36;70656.25;5115119;28;20216;-83
2021/10/30 08:15:05;;;;;;;5.10;2.30;;;;;;;-145.69;51.20;70654.28;5100316;28;20580;-83
2021/10/30 08:17:32;;;;;;;5.50;2.42;;;;;;;-145.69;50.78;70640.34;5074003;28;20661;-82
2021/10/30 08:19:59;;;;;;;6.28;2.17;;;;;;;-145.69;49.07;70628.41;5073967;28;20226;-80
2021/10/30 08:22:25;;;;;;;3.78;2.00;;;;;;;-145.69;48.77;70614.47;5073950;28;20195;-80
2021/10/30 08:24:53;;;;;;;5.97;2.42;;;;;;;-145.69;52.17;70640.34;5073857;28;20601;-81
2021/10/30 08:27:20;;;;;;;5.50;2.40;;;;;;;-145.69;51.40;70640.34;5106208;28;20278;-81
2021/10/30 08:29:46;;;;;;;7.95;2.20;;;;;;;-145.69;48.90;70622.44;5073973;28;20209;-81
2021/10/30 08:32:14;;;;;;;3.45;1.95;;;;;;;-145.69;47.70;70630.41;5073808;28;20205;-81
2021/10/30 08:34:40;;;;;;;7.43;2.65;;;;;;;-145.69;47.68;70626.41;5073077;28;20704;-80
2021/10/30 08:37:08;;;;;;;4.90;2.20;;;;;;;-145.69;47.78;70610.50;5081241;28;20591;-81
2021/10/30 08:39:36;;;;;;;4.32;2.30;;;;;;;-145.69;50.12;70618.47;5094238;28;20210;-82
2021/10/30 08:42:05;;;;;;;5.13;2.05;;;;;;;-145.69;50.84;70620.44;5093951;28;20271;-83
2021/10/30 08:44:34;;;;;;;4.80;2.28;;;;;;;-145.69;54.91;70630.41;5093485;28;20210;-81
2021/10/30 08:47:01;;;;;;;5.40;2.45;;;;;;;-145.69;56.04;70642.34;5093845;28;20233;-83
2021/10/30 08:49:30;;;;;;;5.68;2.17;;;;;;;-145.69;54.33;70650.28;5093737;28;20599;-82
2021/10/30 08:51:57;;;;;;;4.13;1.90;;;;;;;-145.69;53.58;70634.38;5093416;28;20251;-81
2021/10/30 08:54:23;;;;;;;4.85;2.03;;;;;;;-145.69;55.62;70642.34;5093558;28;20627;-82
2021/10/30 08:56:50;;;;;;;4.97;2.20;;;;;;;-145.69;57.40;70652.28;5093713;28;20202;-81
2021/10/30 08:59:37;;;;;;;3.97;1.70;;;;;;;-145.69;55.29;70660.25;5093581;28;20205;-81
2021/10/30 09:02:05;;;;;;;17.63;6.88;;;;;;;-145.69;57.57;70658.25;5093541;28;20205;-82
2021/10/30 09:04:31;;;;;;;5.13;2.72;;;;;;;-145.69;56.18;70662.22;5093288;28;20205;-82
2021/10/30 09:07:00;;;;;;;3.55;1.60;;;;;;;-145.69;61.36;70680.13;5093275;28;20255;-82
2021/10/30 09:09:29;;;;;;;4.78;2.00;;;;;;;-145.69;60.44;70706.00;5093403;28;20209;-85
2021/10/30 09:11:58;;;;;;;6.30;2.08;;;;;;;-145.69;58.16;70698.03;5093471;28;20198;-82
2021/10/30 09:14:28;;;;;;;8.50;2.25;;;;;;;-145.69;59.20;70709.97;5093171;28;20233;-81
2021/10/30 09:17:12;;;;;;;4.75;2.50;;;;;;;-145.69;63.24;70725.91;5093086;28;20210;-79
2021/10/30 09:19:39;;;;;;;4.43;1.98;;;;;;;-145.69;65.38;70733.84;5093358;28;20255;-80
2021/10/30 09:22:06;;;;;;;5.10;1.90;;;;;;;-145.69;62.65;70737.84;5093224;28;20220;-80
2021/10/30 09:24:52;;;;;;;5.22;3.03;;;;;;;-145.69;62.26;70749.78;5093351;28;20194;-79
2021/10/30 09:27:24;;;;;;;6.32;2.53;;;;;;;-145.69;62.96;70753.75;5092346;28;20197;-81
2021/10/30 09:29:56;;;;;;;5.05;2.03;;;;;;;-145.69;64.35;70749.78;5094693;28;20194;-80
2021/10/30 09:32:27;;;;;;;5.10;1.95;;;;;;;-145.69;60.71;70751.75;5093051;28;20652;-80
2021/10/30 09:34:55;;;;;;;3.88;1.95;;;;;;;-145.69;62.14;70765.69;5093232;28;20237;-80
2021/10/30 09:40:24;;;;;;;5.97;2.20;;;;;;;-145.69;65.21;70769.66;5091358;28;20198;-85
2021/10/30 09:43:09;;;;;;;6.97;2.47;;;;;;;-145.69;66.37;70777.63;5093295;28;20271;-83
2021/10/30 09:45:44;;;;;;;4.93;2.30;;;;;;;-145.69;66.02;70777.63;5095472;28;20269;-84
2021/10/30 09:48:11;;;;;;;6.43;3.00;;;;;;;-145.69;72.37;70781.59;5097058;28;20211;-84
2021/10/30 09:50:38;;;;;;;8.07;2.90;;;;;;;-145.69;67.87;70777.63;5097248;28;20198;-84
2021/10/30 09:53:26;;;;;;;3.78;2.10;;;;;;;-145.69;67.52;70765.69;5097209;28;20259;-85
2021/10/30 09:55:54;;;;;;;8.77;2.35;;;;;;;-145.69;71.00;70777.63;5097911;28;20197;-85
2021/10/30 09:58:37;;;;;;;5.35;2.35;;;;;;;-145.69;69.74;70757.72;5098048;28;20611;-84
2021/10/30 10:01:10;;;;;;;5.15;2.08;;;;;;;-145.69;69.74;70735.84;5098016;28;20198;-83
2021/10/30 10:03:39;;;;;;;4.38;2.17;;;;;;;-145.69;70.18;70715.94;5099077;28;20586;-80
2021/10/30 10:06:07;;;;;;;6.43;2.90;;;;;;;-145.69;74.29;70711.97;5099730;28;20194;-85
2021/10/30 10:08:42;;;;;;;10.43;4.63;;;;;;;-145.69;74.51;70700.03;5098128;28;20574;-84
2021/10/30 10:11:13;;;;;;;10.05;4.18;;;;;;;-145.69;74.24;70737.84;5095384;28;20289;-82
2021/10/30 10:13:41;;;;;;;12.10;5.18;;;;;;;-145.69;73.17;70761.72;5097608;28;20293;-81
2021/10/30 10:16:12;;;;;;;9.73;4.90;;;;;;;-145.69;74.29;70797.53;5096666;28;20206;-84
2021/10/30 10:18:42;;;;;;;11.80;4.97;;;;;;;-145.69;75.12;70819.41;5097313;28;20237;-83
2021/10/30 10:21:13;;;;;;;13.88;5.25;;;;;;;-145.69;77.30;70823.38;5098512;28;20261;-82
2021/10/30 10:23:42;;;;;;;10.23;5.10;;;;;;;-145.69;73.10;70817.41;5097181;28;20204;-80
2021/10/30 10:26:12;;;;;;;10.30;4.90;;;;;;;-145.69;73.28;70825.38;5097351;28;20244;-83
2021/10/30 10:28:40;;;;;;;9.68;4.15;;;;;;;-145.69;72.34;70805.47;5101555;28;20229;-83
2021/10/30 10:31:12;;;;;;;9.75;4.40;;;;;;;-145.69;73.15;70793.53;5098094;28;20580;-83
2021/10/30 10:33:41;;;;;;;11.07;4.63;;;;;;;-145.69;71.96;70773.66;5096107;28;20198;-82
2021/10/30 10:36:25;;;;;;;11.70;5.80;;;;;;;-145.69;73.40;70765.69;5096043;28;20603;-83
2021/10/30 10:39:11;;;;;;;15.48;7.43;;;;;;;-145.69;72.09;70791.56;5096406;28;20271;-83
2021/10/30 10:42:00;;;;;;;10.85;4.97;;;;;;;-145.69;69.43;70755.75;5095832;28;20202;-83
2021/10/30 10:45:00;;;;;;;10.15;5.53;;;;;;;-145.69;69.32;70767.69;5091251;28;20198;-81
2021/10/30 10:48:03;;;;;;;10.68;4.53;;;;;;;-145.69;69.12;70769.66;5096088;28;20289;-82
2021/10/30 10:50:39;;;;;;;10.35;5.50;;;;;;;-145.69;70.13;70777.63;5096094;28;20289;-82
2021/10/30 10:53:29;;;;;;;37.13;18.42;;;;;;;-145.69;73.56;70813.44;5096278;28;20209;-82
2021/10/30 10:56:17;;;;;;;22.83;11.20;;;;;;;-145.69;74.89;70799.50;5095498;28;20230;-82
2021/10/30 10:59:10;;;;;;;15.48;7.53;;;;;;;-145.69;77.21;70819.41;5096638;28;20237;-82
2021/10/30 11:02:18;;;;;;;18.42;7.90;;;;;;;-145.69;75.40;70843.28;5094328;28;20225;-82
2021/10/30 11:05:24;;;;;;;16.02;7.65;;;;;;;-145.69;80.63;70857.22;5095572;28;20626;-82
2021/10/30 11:08:27;;;;;;;20.67;8.15;;;;;;;-145.69;79.80;70865.16;5095883;28;20292;-82
2021/10/30 11:11:23;;;;;;;11.67;5.50;;;;;;;-145.69;82.58;70875.13;5095755;28;20233;-82
2021/10/30 11:13:58;;;;;;;12.93;5.63;;;;;;;-145.69;88.17;70869.16;5059790;28;20209;-82
2021/10/30 11:16:29;;;;;;;10.35;5.57;;;;;;;-145.69;84.92;70865.16;5095634;28;20201;-83
2021/10/30 11:19:18;;;;;;;5.37;2.70;;;;;;;-145.69;84.89;70867.16;5095500;28;20294;-82
2021/10/30 11:21:48;;;;;;;6.40;2.70;;;;;;;-145.69;84.52;70851.25;5094593;28;20198;-82
2021/10/30 11:24:24;;;;;;;4.20;2.30;;;;;;;-145.69;78.90;70851.25;5095466;28;20198;-82
2021/10/30 11:27:04;;;;;;;7.10;2.80;;;;;;;-145.69;82.04;70845.28;5095454;28;20198;-82
2021/10/30 11:29:31;;;;;;;9.83;4.73;;;;;;;-145.69;89.63;70877.09;5095171;28;20306;-82
2021/10/30 11:32:01;;;;;;;17.60;8.40;;;;;;;-145.69;92.09;70899.00;5095185;28;20201;-82